Aviation Digital Data Service (ADDS)

Output produced by METARs form (1835 UTC 18 April 2019)
found at http://www.aviationweather.gov/metar/data/
 
Forecast for: UKLL (LVIV , UA)
Text: TAF UKLL 181703Z 1818/1918 36005MPS 9999 BKN020
Forecast period: 1800 UTC 18 April 2019 to 0600 UTC 19 April 2019
Forecast type: FROM: standard forecast or significant change
Winds: from the N (360 degrees) at 12 MPH (10 knots; 5.1 m/s)
Visibility: 6 or more miles 10+ km)
Ceiling: 2000 feet AGL
Clouds: broken clouds at 2000 feet AGL
Weather: no significant weather forecast for this period
Text: TEMPO 1821/1906 3000 BR BKN007
Forecast period: 2100 UTC 18 April 2019 to 0600 UTC 19 April 2019
Forecast type: TEMPORARY: The following changes expected for less than half the time period
Visibility: 1.86 miles (2.99 km)
Ceiling: 700 feet AGL
Clouds: broken clouds at 700 feet AGL
Weather: BR  (mist)
Text: BECMG 1906/1907 03005G12MPS
Forecast period: 0600 to 1800 UTC 19 April 2019
Forecast type: BECOMING: Conditions expected to become as follows by 0700 UTC 19 April 2019
Winds: from the NNE (30 degrees) at 12 MPH (10 knots; 5.1 m/s)
gusting to 26 MPH (23 knots; 11.8 m/s)
Visibility: 6 or more miles 10+ km)
Ceiling: 2000 feet AGL
Clouds: broken clouds at 2000 feet AGL
Weather: no significant weather forecast for this period